createdAt,value
2023-09-24T00:00:17.575Z,22.8
2023-09-24T00:02:48.504Z,22.6
2023-09-24T00:05:19.942Z,22.5
2023-09-24T00:07:51.053Z,22.7
2023-09-24T00:10:21.916Z,22.6
2023-09-24T00:12:52.986Z,22.6
2023-09-24T00:15:23.448Z,22.6
2023-09-24T00:17:55.153Z,22.6
2023-09-24T00:20:24.370Z,22.7
2023-09-24T00:22:55.519Z,22.7
2023-09-24T00:25:27.371Z,22.7
2023-09-24T00:27:58.541Z,22.6
2023-09-24T00:30:29.227Z,22.7
2023-09-24T00:32:59.942Z,22.7
2023-09-24T00:35:30.924Z,22.8
2023-09-24T00:38:01.945Z,22.8
2023-09-24T00:40:32.564Z,22.8
2023-09-24T00:43:03.386Z,22.7
2023-09-24T00:45:34.044Z,22.6
2023-09-24T00:48:03.381Z,22.5
2023-09-24T00:50:35.208Z,22.4
2023-09-24T00:53:06.156Z,22.3
2023-09-24T00:55:37.203Z,22.4
2023-09-24T00:58:08.095Z,22.4
2023-09-24T01:00:39.095Z,22.3
2023-09-24T01:03:10.201Z,22.2
2023-09-24T01:05:41.189Z,22.2
2023-09-24T01:08:12.020Z,22.1
2023-09-24T01:10:41.075Z,22.1
2023-09-24T01:13:11.498Z,22
2023-09-24T01:15:41.925Z,21.9
2023-09-24T01:18:12.674Z,21.9
2023-09-24T01:20:41.495Z,21.9
2023-09-24T01:23:12.140Z,21.8
2023-09-24T01:25:42.624Z,21.7
2023-09-24T01:28:13.424Z,21.8
2023-09-24T01:30:44.218Z,21.8
2023-09-24T01:33:14.843Z,21.5
2023-09-24T01:35:43.704Z,21.6
2023-09-24T01:38:14.948Z,21.6
2023-09-24T01:40:46.306Z,21.6
2023-09-24T01:43:16.741Z,21.4
2023-09-24T01:45:47.483Z,21.3
2023-09-24T01:48:18.797Z,21.4
2023-09-24T01:50:48.421Z,21.5
2023-09-24T01:53:18.666Z,21.3
2023-09-24T01:55:49.157Z,21.2
2023-09-24T01:58:19.908Z,20.9
2023-09-24T02:00:50.458Z,20.8
2023-09-24T02:03:19.827Z,21
2023-09-24T02:05:50.562Z,21
2023-09-24T02:08:21.355Z,20.9
2023-09-24T02:10:52.458Z,20.7
2023-09-24T02:13:23.364Z,20.5
2023-09-24T02:15:54.820Z,20.8
2023-09-24T02:18:24.443Z,20.5
2023-09-24T02:20:55.712Z,20.7
2023-09-24T02:23:27.172Z,20.8
2023-09-24T02:25:58.264Z,20.8
2023-09-24T02:28:29.024Z,20.9
2023-09-24T02:30:59.757Z,20.9
2023-09-24T02:33:31.046Z,21
2023-09-24T02:36:02.122Z,21.1
2023-09-24T02:38:33.128Z,21.1
2023-09-24T02:41:04.307Z,21.1
2023-09-24T02:43:36.118Z,21
2023-09-24T02:46:07.293Z,20.9
2023-09-24T02:48:38.520Z,20.8
2023-09-24T02:51:09.911Z,20.9
2023-09-24T02:53:40.847Z,20.8
2023-09-24T02:56:12.012Z,20.9
2023-09-24T02:58:42.832Z,21
2023-09-24T03:01:13.822Z,21
2023-09-24T03:03:44.603Z,21
2023-09-24T03:06:16.086Z,21
2023-09-24T03:08:47.221Z,21
2023-09-24T03:11:17.877Z,21
2023-09-24T03:13:48.653Z,21
2023-09-24T03:16:19.957Z,21
2023-09-24T03:18:52.760Z,21
2023-09-24T03:21:24.009Z,20.5
2023-09-24T03:23:55.124Z,20.5
2023-09-24T03:26:26.235Z,20.6
2023-09-24T03:28:57.254Z,20.5
2023-09-24T03:31:28.454Z,20.6
2023-09-24T03:33:59.014Z,20.4
2023-09-24T03:36:29.436Z,20.3
2023-09-24T03:39:00.917Z,20.5
2023-09-24T03:41:32.282Z,20.5
2023-09-24T03:44:02.787Z,20.4
2023-09-24T03:46:33.404Z,20.5
2023-09-24T03:49:04.729Z,20.5
2023-09-24T03:51:35.710Z,20.6
2023-09-24T03:54:06.956Z,20.6
2023-09-24T03:56:37.646Z,20.6
2023-09-24T03:59:08.538Z,20.5
2023-09-24T04:01:40.235Z,20.2
2023-09-24T04:04:10.791Z,20.3
2023-09-24T04:06:41.795Z,20.3
2023-09-24T04:09:12.046Z,20
2023-09-24T04:11:42.970Z,19.8
2023-09-24T04:14:13.500Z,19.9
2023-09-24T04:16:45.182Z,20.2
2023-09-24T04:19:16.252Z,20.3
2023-09-24T04:21:46.758Z,20.3
2023-09-24T04:24:18.048Z,20.5
2023-09-24T04:26:48.765Z,20.5
2023-09-24T04:29:19.834Z,20.6
2023-09-24T04:31:50.487Z,20.6
2023-09-24T04:34:21.367Z,20.6
2023-09-24T04:36:51.475Z,20.5
2023-09-24T04:39:22.133Z,20.6
2023-09-24T04:41:53.170Z,20.4
2023-09-24T04:44:23.363Z,20.4
2023-09-24T04:46:54.095Z,20.6
2023-09-24T04:49:25.074Z,20.6
2023-09-24T04:51:55.993Z,20.7
2023-09-24T04:54:26.961Z,20.8
2023-09-24T04:56:58.074Z,20.8
2023-09-24T04:59:29.041Z,20.9
2023-09-24T05:01:59.736Z,20.8
2023-09-24T05:04:30.487Z,20.9
2023-09-24T05:07:00.719Z,20.9
2023-09-24T05:09:31.546Z,20.9
2023-09-24T05:12:02.632Z,20.7
2023-09-24T05:14:33.380Z,20.8
2023-09-24T05:17:03.901Z,20.9
2023-09-24T05:19:35.038Z,20.8
2023-09-24T05:22:05.312Z,20.8
2023-09-24T05:24:36.590Z,20.7
2023-09-24T05:27:06.898Z,20.4
2023-09-24T05:29:37.235Z,20.6
2023-09-24T05:32:08.167Z,20.6
2023-09-24T05:34:39.246Z,20.4
2023-09-24T05:37:09.899Z,20.5
2023-09-24T05:39:40.252Z,20.2
2023-09-24T05:42:11.033Z,20.1
2023-09-24T05:44:42.443Z,20.2
2023-09-24T05:47:12.789Z,20
2023-09-24T05:49:43.285Z,19.7
2023-09-24T05:52:13.530Z,19.6
2023-09-24T05:54:44.399Z,19.8
2023-09-24T05:57:15.198Z,19.5
2023-09-24T05:59:45.815Z,19.8
2023-09-24T06:02:16.402Z,19.9
2023-09-24T06:04:47.929Z,20
2023-09-24T06:07:19.085Z,20.1
2023-09-24T06:09:49.547Z,20.1
2023-09-24T06:12:18.897Z,20.2
2023-09-24T06:14:49.500Z,20.3
2023-09-24T06:17:19.448Z,20.4
2023-09-24T06:19:49.477Z,20.3
2023-09-24T06:22:19.545Z,20.3
2023-09-24T06:24:50.230Z,20.4
2023-09-24T06:27:19.363Z,20.4
2023-09-24T06:29:49.422Z,20.5
2023-09-24T06:32:20.712Z,20.6
2023-09-24T06:34:51.564Z,20.5
2023-09-24T06:37:22.193Z,20.6
2023-09-24T06:39:52.991Z,20.7
2023-09-24T06:42:23.527Z,20.8
2023-09-24T06:44:54.346Z,21
2023-09-24T06:47:24.818Z,21
2023-09-24T06:49:55.413Z,21
2023-09-24T06:52:26.405Z,21
2023-09-24T06:54:55.800Z,20.7
2023-09-24T06:57:26.719Z,20.9
2023-09-24T06:59:57.434Z,20.7
2023-09-24T07:02:27.970Z,20.5
2023-09-24T07:04:58.566Z,20.7
2023-09-24T07:07:29.248Z,20.9
2023-09-24T07:09:59.555Z,21
2023-09-24T07:12:30.756Z,21.1
2023-09-24T07:15:01.296Z,21.2
2023-09-24T07:17:31.760Z,21.3
2023-09-24T07:20:01.829Z,21.3
2023-09-24T07:22:35.690Z,21.4
2023-09-24T07:25:06.293Z,21.5
2023-09-24T07:27:37.006Z,21.5
2023-09-24T07:30:07.969Z,21.6
2023-09-24T07:32:39.081Z,21.7
2023-09-24T07:35:07.931Z,21.9
2023-09-24T07:37:39.037Z,22
2023-09-24T07:40:09.856Z,22
2023-09-24T07:42:42.535Z,22.1
2023-09-24T07:45:11.271Z,22.1
2023-09-24T07:47:41.704Z,22.1
2023-09-24T07:50:12.668Z,22.2
2023-09-24T07:52:43.054Z,22.2
2023-09-24T07:55:13.508Z,22.3
2023-09-24T07:57:44.230Z,22.3
2023-09-24T08:00:14.508Z,22.3
2023-09-24T08:02:45.408Z,22.4
2023-09-24T08:05:15.964Z,22.3
2023-09-24T08:07:46.249Z,22.3
2023-09-24T08:10:16.834Z,22.4
2023-09-24T08:12:47.479Z,22.4
2023-09-24T08:15:18.461Z,22.4
2023-09-24T08:17:48.818Z,22.5
2023-09-24T08:20:20.043Z,22.5
2023-09-24T08:22:50.353Z,22.5
2023-09-24T08:25:21.397Z,22.3
2023-09-24T08:27:52.026Z,22.4
2023-09-24T08:30:21.731Z,22.4
2023-09-24T08:32:52.173Z,22.4
2023-09-24T08:35:22.770Z,22.5
2023-09-24T08:37:53.702Z,22.6
2023-09-24T08:40:22.974Z,22.7
2023-09-24T08:42:53.546Z,22.8
2023-09-24T08:45:24.638Z,22.8
2023-09-24T08:47:55.526Z,22.8
2023-09-24T08:50:26.179Z,22.9
2023-09-24T08:52:57.932Z,22.9
2023-09-24T08:55:28.335Z,22.9
2023-09-24T08:57:57.504Z,22.9
2023-09-24T09:00:28.353Z,22.8
2023-09-24T09:03:00.053Z,22.8
2023-09-24T09:05:29.989Z,22.8
2023-09-24T09:08:00.371Z,22.7
2023-09-24T09:10:31.440Z,22.7
2023-09-24T09:13:01.778Z,22.8
2023-09-24T09:15:32.867Z,22.9
2023-09-24T09:18:03.655Z,23
2023-09-24T09:20:34.173Z,23
2023-09-24T09:23:05.121Z,23
2023-09-24T09:25:35.697Z,23.1
2023-09-24T09:28:06.066Z,23.1
2023-09-24T09:30:36.607Z,23.2
2023-09-24T09:33:07.014Z,23.2
2023-09-24T09:35:37.893Z,23.2
2023-09-24T09:38:08.360Z,23.1
2023-09-24T09:40:38.750Z,23.2
2023-09-24T09:43:09.217Z,23.2
2023-09-24T09:45:39.994Z,23.2
2023-09-24T09:48:10.578Z,23.2
2023-09-24T09:50:42.054Z,23.3
2023-09-24T09:53:12.740Z,23.3
2023-09-24T09:55:42.912Z,23.4
2023-09-24T09:58:21.893Z,23.6
2023-09-24T10:00:44.274Z,23.4
2023-09-24T10:03:15.238Z,23.4
2023-09-24T10:05:45.638Z,23.6
2023-09-24T10:08:15.938Z,23.6
2023-09-24T10:10:46.659Z,23.6
2023-09-24T10:13:17.003Z,23.6
2023-09-24T10:15:47.561Z,23.5
2023-09-24T10:18:18.116Z,23.5
2023-09-24T10:20:48.459Z,23.5
2023-09-24T10:23:18.976Z,23.4
2023-09-24T10:25:50.305Z,23.4
2023-09-24T10:28:27.590Z,23.3
2023-09-24T10:30:58.129Z,23.3
2023-09-24T10:33:28.691Z,23.4
2023-09-24T10:35:58.842Z,23.3
2023-09-24T10:38:29.994Z,23.1
2023-09-24T10:40:59.947Z,23.2
2023-09-24T10:43:30.110Z,23.1
2023-09-24T10:46:00.462Z,23.1
2023-09-24T10:48:44.329Z,23.2
2023-09-24T10:51:01.917Z,23.2
2023-09-24T10:53:32.904Z,23.1
2023-09-24T10:56:11.267Z,23.1
2023-09-24T10:58:33.889Z,23.1
2023-09-24T11:01:04.360Z,23
2023-09-24T11:03:35.655Z,23.1
2023-09-24T11:06:06.109Z,23
2023-09-24T11:08:36.877Z,23
2023-09-24T11:11:07.654Z,22.9
2023-09-24T11:13:38.332Z,23
2023-09-24T11:16:08.650Z,23
2023-09-24T11:18:39.171Z,22.8
2023-09-24T11:21:10.439Z,22.9
2023-09-24T11:23:42.614Z,22.9
2023-09-24T11:26:11.541Z,22.9
2023-09-24T11:28:42.690Z,23
2023-09-24T11:31:13.726Z,22.9
2023-09-24T11:33:44.269Z,22.8
2023-09-24T11:36:15.479Z,22.9
2023-09-24T11:38:45.994Z,22.9
2023-09-24T11:41:18.773Z,22.9
2023-09-24T11:43:49.304Z,23
2023-09-24T11:46:19.915Z,23
2023-09-24T11:48:50.996Z,23
2023-09-24T11:51:21.253Z,23
2023-09-24T11:53:51.389Z,22.9
2023-09-24T11:56:21.637Z,22.9
2023-09-24T11:58:52.105Z,22.9
2023-09-24T12:01:22.336Z,22.7
2023-09-24T12:03:52.800Z,22.9
2023-09-24T12:06:23.166Z,22.9
2023-09-24T12:08:52.513Z,23
2023-09-24T12:11:22.675Z,23
2023-09-24T12:13:53.025Z,23
2023-09-24T12:16:23.954Z,23.1
2023-09-24T12:18:54.815Z,23.1
2023-09-24T12:21:25.668Z,23.1
2023-09-24T12:23:55.974Z,23
2023-09-24T12:26:26.529Z,23
2023-09-24T12:29:03.131Z,22.9
2023-09-24T12:31:33.859Z,23
2023-09-24T12:34:04.473Z,23.1
2023-09-24T12:36:34.719Z,22.9
2023-09-24T12:39:05.205Z,22.9
2023-09-24T12:41:36.019Z,23
2023-09-24T12:44:06.378Z,22.9
2023-09-24T12:46:36.664Z,22.8
2023-09-24T12:49:05.709Z,22.9
2023-09-24T12:51:37.198Z,22.9
2023-09-24T12:54:08.133Z,23
2023-09-24T12:56:36.936Z,23
2023-09-24T12:59:08.014Z,23
2023-09-24T13:01:38.890Z,22.9
2023-09-24T13:04:09.868Z,23
2023-09-24T13:06:40.675Z,23
2023-09-24T13:09:11.327Z,23.1
2023-09-24T13:11:41.871Z,22.9
2023-09-24T13:14:12.811Z,23.1
2023-09-24T13:16:44.259Z,23.1
2023-09-24T13:19:15.410Z,23
2023-09-24T13:21:46.916Z,23.1
2023-09-24T13:24:16.830Z,23.1
2023-09-24T13:26:48.419Z,23.1
2023-09-24T13:29:18.419Z,23.1
2023-09-24T13:31:49.467Z,23.2
2023-09-24T13:34:19.924Z,23.1
2023-09-24T13:36:49.761Z,23
2023-09-24T13:39:20.636Z,23.1
2023-09-24T13:41:51.051Z,23
2023-09-24T13:44:21.931Z,23.1
2023-09-24T13:46:52.909Z,23
2023-09-24T13:49:23.866Z,23.1
2023-09-24T13:51:55.336Z,23.1
2023-09-24T13:54:25.449Z,23
2023-09-24T13:56:59.030Z,23
2023-09-24T13:59:29.394Z,22.9
2023-09-24T14:02:00.007Z,22.9
2023-09-24T14:04:30.367Z,22.9
2023-09-24T14:07:01.408Z,23
2023-09-24T14:09:31.561Z,22.9
2023-09-24T14:12:02.300Z,23
2023-09-24T14:14:33.300Z,22.9
2023-09-24T14:17:03.735Z,22.9
2023-09-24T14:19:34.641Z,22.9
2023-09-24T14:22:05.687Z,22.8
2023-09-24T14:24:36.148Z,22.8
2023-09-24T14:27:07.016Z,22.8
2023-09-24T14:29:37.785Z,22.7
2023-09-24T14:32:08.156Z,22.8
2023-09-24T14:34:37.921Z,22.5
2023-09-24T14:37:08.083Z,22.5
2023-09-24T14:39:39.089Z,22.5
2023-09-24T14:42:09.514Z,22.4
2023-09-24T14:44:40.305Z,22.3
2023-09-24T14:47:09.242Z,22.3
2023-09-24T14:49:39.638Z,22.3
2023-09-24T14:52:09.815Z,22.2
2023-09-24T14:54:40.318Z,22
2023-09-24T14:57:10.764Z,22.1
2023-09-24T14:59:41.093Z,22.2
2023-09-24T15:02:11.438Z,22.1
2023-09-24T15:04:41.646Z,22.1
2023-09-24T15:07:11.653Z,22
2023-09-24T15:09:42.193Z,22
2023-09-24T15:12:12.857Z,22
2023-09-24T15:14:43.532Z,22
2023-09-24T15:17:14.115Z,21.9
2023-09-24T15:19:45.419Z,21.9
2023-09-24T15:22:15.861Z,21.8
2023-09-24T15:24:47.038Z,21.8
2023-09-24T15:27:17.287Z,21.8
2023-09-24T15:29:48.597Z,21.8
2023-09-24T15:32:19.570Z,21.9
2023-09-24T15:34:50.214Z,21.8
2023-09-24T15:37:20.500Z,21.9
2023-09-24T15:39:51.744Z,21.7
2023-09-24T15:42:21.856Z,21.9
2023-09-24T15:44:52.097Z,21.8
2023-09-24T15:47:22.270Z,21.8
2023-09-24T15:49:53.753Z,21.8
2023-09-24T15:52:24.825Z,21.7
2023-09-24T15:54:55.348Z,21.5
2023-09-24T15:57:25.712Z,21.6
2023-09-24T15:59:56.863Z,21.7
2023-09-24T16:02:27.412Z,21.6
2023-09-24T16:04:58.227Z,21.6
2023-09-24T16:07:28.723Z,21.5
2023-09-24T16:09:59.188Z,21.5
2023-09-24T16:12:30.173Z,21.5
2023-09-24T16:15:01.056Z,21.5
2023-09-24T16:17:31.211Z,21.5
2023-09-24T16:20:01.592Z,21.5
2023-09-24T16:22:31.683Z,21.4
2023-09-24T16:25:02.090Z,21.5
2023-09-24T16:27:30.684Z,21.4
2023-09-24T16:30:00.887Z,21.3
2023-09-24T16:32:31.714Z,21.2
2023-09-24T16:35:02.745Z,21.2
2023-09-24T16:37:33.124Z,21.1
2023-09-24T16:40:03.405Z,21.1
2023-09-24T16:42:33.898Z,21.1
2023-09-24T16:45:04.553Z,21.1
2023-09-24T16:47:38.967Z,21
2023-09-24T16:50:08.947Z,20.9
2023-09-24T16:52:39.770Z,20.9
2023-09-24T16:55:10.789Z,21
2023-09-24T16:57:44.908Z,20.8
2023-09-24T17:00:15.019Z,20.8
2023-09-24T17:02:45.684Z,20.8
2023-09-24T17:05:16.004Z,20.8
2023-09-24T17:07:46.225Z,20.7
2023-09-24T17:10:16.677Z,20.6
2023-09-24T17:12:46.904Z,20.7
2023-09-24T17:15:18.293Z,20.7
2023-09-24T17:17:48.601Z,20.7
2023-09-24T17:20:19.744Z,20.7
2023-09-24T17:22:50.168Z,20.5
2023-09-24T17:25:20.812Z,20.6
2023-09-24T17:27:50.960Z,20.6
2023-09-24T17:30:21.296Z,20.5
2023-09-24T17:32:51.807Z,20.5
2023-09-24T17:35:22.529Z,20.5
2023-09-24T17:37:53.500Z,20.6
2023-09-24T17:40:23.522Z,20.5
2023-09-24T17:42:56.686Z,20.5
2023-09-24T17:45:27.271Z,20.5
2023-09-24T17:47:57.658Z,20.3
2023-09-24T17:50:28.529Z,20.4
2023-09-24T17:52:58.963Z,20.3
2023-09-24T17:55:29.095Z,20.3
2023-09-24T17:57:59.375Z,20.4
2023-09-24T18:00:29.719Z,20.3
2023-09-24T18:02:59.943Z,20.2
2023-09-24T18:05:30.033Z,20
2023-09-24T18:08:00.162Z,19.9
2023-09-24T18:10:30.385Z,19.8
2023-09-24T18:13:00.890Z,19.7
2023-09-24T18:15:31.032Z,19.8
2023-09-24T18:18:01.851Z,19.7
2023-09-24T18:20:32.194Z,19.8
2023-09-24T18:23:02.615Z,19.8
2023-09-24T18:25:32.930Z,19.8
2023-09-24T18:28:03.213Z,19.7
2023-09-24T18:30:33.694Z,19.7
2023-09-24T18:33:03.796Z,19.5
2023-09-24T18:35:33.776Z,19.5
2023-09-24T18:38:04.430Z,19.4
2023-09-24T18:40:34.702Z,19.4
2023-09-24T18:43:04.811Z,19.3
2023-09-24T18:45:35.294Z,19.2
2023-09-24T18:48:05.695Z,19.3
2023-09-24T18:50:36.002Z,19.2
2023-09-24T18:53:06.430Z,19.3
2023-09-24T18:55:37.034Z,19.3
2023-09-24T18:58:07.337Z,19.2
2023-09-24T19:00:36.205Z,19.2
2023-09-24T19:03:07.394Z,19.2
2023-09-24T19:05:37.579Z,19.1
2023-09-24T19:08:06.552Z,19
2023-09-24T19:10:36.815Z,18.9
2023-09-24T19:13:07.103Z,18.8
2023-09-24T19:15:36.870Z,18.5
2023-09-24T19:18:07.364Z,18.6
2023-09-24T19:20:37.671Z,18.7
2023-09-24T19:23:07.940Z,18.8
2023-09-24T19:25:38.557Z,18.5
2023-09-24T19:28:08.974Z,18.4
2023-09-24T19:30:39.665Z,18.5
2023-09-24T19:33:08.580Z,18.4
2023-09-24T19:35:39.052Z,18.3
2023-09-24T19:38:09.374Z,18.5
2023-09-24T19:40:40.232Z,18.6
2023-09-24T19:43:10.641Z,18.6
2023-09-24T19:45:41.699Z,18.7
2023-09-24T19:48:12.040Z,18.8
2023-09-24T19:50:42.214Z,18.8
2023-09-24T19:53:12.762Z,18.7
2023-09-24T19:55:43.155Z,18.6
2023-09-24T19:58:13.399Z,18.7
2023-09-24T20:00:45.094Z,18.7
2023-09-24T20:03:15.617Z,18.8
2023-09-24T20:05:45.812Z,18.7
2023-09-24T20:08:15.976Z,18.7
2023-09-24T20:10:46.110Z,18.6
2023-09-24T20:13:17.138Z,18.5
2023-09-24T20:15:47.445Z,18.6
2023-09-24T20:18:17.764Z,18.7
2023-09-24T20:20:48.120Z,18.7
2023-09-24T20:23:18.406Z,18.8
2023-09-24T20:25:48.897Z,18.8
2023-09-24T20:28:20.504Z,18.8
2023-09-24T20:30:48.042Z,18.8
2023-09-24T20:33:28.379Z,18.8
2023-09-24T20:35:46.920Z,18.7
2023-09-24T20:38:17.094Z,18.6
2023-09-24T20:40:47.442Z,18.6
2023-09-24T20:43:16.382Z,18.7
2023-09-24T20:45:46.640Z,18.6
2023-09-24T20:48:17.357Z,18.7
2023-09-24T20:50:47.506Z,18.7
2023-09-24T20:53:18.028Z,18.7
2023-09-24T20:55:49.327Z,18.8
2023-09-24T20:58:19.753Z,18.8
2023-09-24T21:00:50.349Z,18.8
2023-09-24T21:03:20.669Z,18.8
2023-09-24T21:05:51.092Z,18.8
2023-09-24T21:08:21.597Z,18.7
2023-09-24T21:10:51.862Z,18.6
2023-09-24T21:13:22.248Z,18.6
2023-09-24T21:15:52.977Z,18.5
2023-09-24T21:18:23.357Z,18.4
2023-09-24T21:20:53.782Z,18.4
2023-09-24T21:23:24.271Z,18.4
2023-09-24T21:25:57.038Z,18.4
2023-09-24T21:28:26.189Z,18.4
2023-09-24T21:30:56.870Z,18.4
2023-09-24T21:33:27.532Z,18.4
2023-09-24T21:35:57.483Z,18.5
2023-09-24T21:38:28.173Z,18.5
2023-09-24T21:40:58.837Z,18.5
2023-09-24T21:43:29.275Z,18.6
2023-09-24T21:46:00.233Z,18.5
2023-09-24T21:48:31.230Z,18.5
2023-09-24T21:51:01.411Z,18.5
2023-09-24T21:53:31.633Z,18.5
2023-09-24T21:56:01.860Z,18.6
2023-09-24T21:58:32.276Z,18.6
2023-09-24T22:01:02.782Z,18.6
2023-09-24T22:03:33.320Z,18.6
2023-09-24T22:06:03.635Z,18.7
2023-09-24T22:08:32.710Z,18.7
2023-09-24T22:11:03.047Z,18.7
2023-09-24T22:13:33.743Z,18.8
2023-09-24T22:16:04.324Z,18.8
2023-09-24T22:18:34.580Z,18.8
2023-09-24T22:21:04.595Z,18.8
2023-09-24T22:23:34.917Z,18.7
2023-09-24T22:26:05.004Z,18.6
2023-09-24T22:28:35.641Z,18.4
2023-09-24T22:31:06.368Z,18.5
2023-09-24T22:33:35.520Z,18.6
2023-09-24T22:36:05.840Z,18.6
2023-09-24T22:38:36.690Z,18.7
2023-09-24T22:41:07.326Z,18.7
2023-09-24T22:43:37.727Z,18.7
2023-09-24T22:46:06.648Z,18.8
2023-09-24T22:48:37.152Z,18.7
2023-09-24T22:51:07.454Z,18.7
2023-09-24T22:53:37.892Z,18.7
2023-09-24T22:56:08.261Z,18.7
2023-09-24T22:58:38.852Z,18.7
2023-09-24T23:01:09.152Z,18.6
2023-09-24T23:03:39.434Z,18.4
2023-09-24T23:06:09.883Z,18.5
2023-09-24T23:08:40.292Z,18.6
2023-09-24T23:11:10.930Z,18.5
2023-09-24T23:13:41.319Z,18.6
2023-09-24T23:16:11.947Z,18.7
2023-09-24T23:18:42.287Z,18.6
2023-09-24T23:21:12.851Z,18.7
2023-09-24T23:23:43.335Z,18.6
2023-09-24T23:26:14.134Z,18.7
2023-09-24T23:28:44.655Z,18.7
2023-09-24T23:31:15.337Z,18.7
2023-09-24T23:33:45.936Z,18.7
2023-09-24T23:36:16.354Z,18.6
2023-09-24T23:38:46.996Z,18.6
2023-09-24T23:41:17.269Z,18.5
2023-09-24T23:43:48.567Z,18.6
2023-09-24T23:46:19.126Z,18.6
2023-09-24T23:48:50.302Z,18.6
2023-09-24T23:51:19.332Z,18.7
2023-09-24T23:53:50.191Z,18.7
2023-09-24T23:56:20.956Z,18.5
2023-09-24T23:58:51.498Z,18.5
